Time;durP1;ratioP1;P1;durP2;ratioP2;P2;SDS_P1;SDS_P2;PMS_P1;PMS_P2;Temp;Humidity;BMP_temperature;BMP_pressure;BME280_temperature;BME280_humidity;BME280_pressure;Samples;Min_cycle;Max_cycle;Signal;HPM_P1;HPM_P2
2023/07/26 00:01:14;;;;;;;2.05;0.77;;;13.60;99.90;;;;;;5020672;28;20039;-90
2023/07/26 00:03:40;;;;;;;1.65;0.70;;;13.60;99.90;;;;;;5004148;28;20044;-91
2023/07/26 00:06:06;;;;;;;1.58;0.75;;;13.60;99.90;;;;;;5020002;28;20045;-89
2023/07/26 00:08:31;;;;;;;1.42;0.63;;;13.60;99.90;;;;;;5017992;28;20033;-93
2023/07/26 00:10:57;;;;;;;3.85;1.08;;;13.60;99.90;;;;;;5036842;28;20045;-92
2023/07/26 00:13:23;;;;;;;1.63;1.00;;;13.60;99.90;;;;;;5004439;28;20045;-92
2023/07/26 00:15:49;;;;;;;5.32;0.88;;;13.60;99.90;;;;;;5016533;28;20033;-92
2023/07/26 00:18:15;;;;;;;1.95;0.95;;;13.60;99.90;;;;;;5026219;28;20125;-93
2023/07/26 00:20:40;;;;;;;1.95;0.80;;;13.60;99.90;;;;;;5006816;28;20487;-94
2023/07/26 00:23:06;;;;;;;2.05;0.60;;;13.60;99.90;;;;;;5001398;28;20041;-92
2023/07/26 00:25:32;;;;;;;2.90;1.00;;;13.60;99.90;;;;;;5028764;28;20036;-92
2023/07/26 00:27:58;;;;;;;1.00;0.70;;;13.60;99.90;;;;;;4999149;28;20045;-93
2023/07/26 00:30:23;;;;;;;2.30;0.85;;;13.50;99.90;;;;;;5018438;28;20121;-93
2023/07/26 00:32:49;;;;;;;3.70;0.70;;;13.50;99.90;;;;;;4983764;28;20120;-93
2023/07/26 00:35:24;;;;;;;0.88;0.60;;;13.50;99.90;;;;;;4983914;28;20481;-93
2023/07/26 00:37:50;;;;;;;1.85;0.65;;;13.50;99.90;;;;;;5068907;28;20045;-94
2023/07/26 00:40:16;;;;;;;2.80;0.75;;;13.60;99.90;;;;;;5047899;28;20053;-94
2023/07/26 00:42:42;;;;;;;1.75;0.60;;;13.50;99.90;;;;;;5034766;28;20037;-92
2023/07/26 00:45:08;;;;;;;3.47;0.98;;;13.50;99.90;;;;;;5035144;28;20159;-92
2023/07/26 00:47:34;;;;;;;5.10;0.50;;;13.50;99.90;;;;;;5019404;28;20037;-92
2023/07/26 00:49:59;;;;;;;1.10;0.63;;;13.50;99.90;;;;;;5036225;28;20048;-93
2023/07/26 00:52:26;;;;;;;1.95;0.68;;;13.50;99.90;;;;;;5037200;28;20128;-94
2023/07/26 00:54:58;;;;;;;2.35;0.75;;;13.50;99.90;;;;;;5003035;28;20080;-92
2023/07/26 00:57:24;;;;;;;1.75;0.68;;;13.50;99.90;;;;;;5058703;28;20029;-93
2023/07/26 00:59:50;;;;;;;2.42;0.88;;;13.50;99.90;;;;;;5037441;28;20037;-92
2023/07/26 01:02:16;;;;;;;2.17;0.93;;;13.50;99.90;;;;;;5050884;28;20102;-92
2023/07/26 01:04:42;;;;;;;2.53;0.70;;;13.50;99.90;;;;;;5018975;28;20583;-92
2023/07/26 01:07:17;;;;;;;1.60;0.88;;;13.40;99.90;;;;;;5034027;28;20076;-91
2023/07/26 01:09:57;;;;;;;1.50;0.70;;;13.50;99.90;;;;;;5047031;28;20044;-92
2023/07/26 01:12:30;;;;;;;1.30;0.88;;;13.50;99.90;;;;;;5035405;28;20048;-93
2023/07/26 01:15:03;;;;;;;1.30;0.77;;;13.40;99.90;;;;;;5047865;28;20119;-93
2023/07/26 01:17:29;;;;;;;1.33;0.70;;;13.40;99.90;;;;;;5035437;28;20110;-93
2023/07/26 01:19:56;;;;;;;1.70;0.57;;;13.40;99.90;;;;;;5037514;28;20076;-93
2023/07/26 01:22:22;;;;;;;1.63;0.70;;;13.40;99.90;;;;;;5003646;28;20123;-94
2023/07/26 01:24:47;;;;;;;2.25;0.80;;;13.40;99.90;;;;;;5030437;28;20079;-93
2023/07/26 01:27:13;;;;;;;2.83;0.88;;;13.40;99.90;;;;;;5024802;28;20037;-93
2023/07/26 01:29:39;;;;;;;2.25;0.60;;;13.40;99.90;;;;;;5013343;28;20041;-93
2023/07/26 01:32:09;;;;;;;4.47;0.98;;;13.40;99.90;;;;;;5017523;28;20076;-94
2023/07/26 01:34:36;;;;;;;1.50;1.00;;;13.40;99.90;;;;;;5034150;28;20071;-93
2023/07/26 01:37:02;;;;;;;3.08;1.13;;;13.40;99.90;;;;;;5030534;28;20049;-93
2023/07/26 01:39:29;;;;;;;1.60;0.90;;;13.40;99.90;;;;;;5033011;28;20045;-92
2023/07/26 01:41:55;;;;;;;1.50;0.95;;;13.40;99.90;;;;;;5034716;28;20060;-92
2023/07/26 01:44:21;;;;;;;3.67;1.07;;;13.40;99.90;;;;;;5031698;28;20052;-92
2023/07/26 01:46:47;;;;;;;1.77;0.80;;;13.40;99.90;;;;;;5044848;28;20471;-91
2023/07/26 01:49:13;;;;;;;2.33;1.13;;;13.40;99.90;;;;;;5045714;28;20046;-91
2023/07/26 01:51:39;;;;;;;1.80;1.08;;;13.40;99.90;;;;;;5027678;28;20144;-93
2023/07/26 01:54:08;;;;;;;3.83;1.20;;;13.30;99.90;;;;;;5034321;28;20037;-92
2023/07/26 01:56:33;;;;;;;2.75;1.00;;;13.30;99.90;;;;;;5030512;28;20033;-91
2023/07/26 01:58:59;;;;;;;2.03;1.20;;;13.30;99.90;;;;;;5009775;28;20679;-91
2023/07/26 02:01:25;;;;;;;2.15;0.90;;;13.20;99.90;;;;;;5042497;28;20471;-91
2023/07/26 02:03:50;;;;;;;1.58;1.00;;;13.10;99.90;;;;;;5004646;28;20041;-91
2023/07/26 02:06:16;;;;;;;1.63;0.80;;;13.10;99.90;;;;;;5039844;28;20032;-92
2023/07/26 02:08:42;;;;;;;1.52;0.80;;;13.00;99.90;;;;;;5018481;28;20037;-92
2023/07/26 02:11:07;;;;;;;2.53;0.90;;;13.00;99.90;;;;;;5018519;28;20048;-91
2023/07/26 02:13:33;;;;;;;4.53;1.13;;;12.90;99.90;;;;;;5007052;28;20124;-92
2023/07/26 02:15:59;;;;;;;2.30;0.95;;;12.90;99.90;;;;;;5034499;28;20526;-92
2023/07/26 02:18:25;;;;;;;1.92;0.70;;;12.90;99.90;;;;;;5011850;28;20476;-91
2023/07/26 02:20:51;;;;;;;2.30;0.75;;;12.90;99.90;;;;;;5025697;28;20098;-92
2023/07/26 02:23:17;;;;;;;1.42;0.95;;;12.80;99.90;;;;;;5016844;28;20124;-92
2023/07/26 02:25:43;;;;;;;3.05;1.00;;;12.80;99.90;;;;;;5001691;28;20048;-93
2023/07/26 02:28:09;;;;;;;2.67;0.82;;;12.80;99.90;;;;;;5022031;28;20033;-92
2023/07/26 02:30:35;;;;;;;1.25;0.80;;;12.70;99.90;;;;;;5033901;28;20087;-91
2023/07/26 02:33:01;;;;;;;2.70;0.95;;;12.70;99.90;;;;;;5026834;28;20037;-92
2023/07/26 02:35:26;;;;;;;2.10;0.77;;;12.70;99.90;;;;;;5038354;28;20044;-91
2023/07/26 02:37:52;;;;;;;1.20;0.65;;;12.70;99.90;;;;;;5016360;28;20096;-92
2023/07/26 02:40:18;;;;;;;2.10;1.00;;;12.60;99.90;;;;;;5008798;28;20041;-92
2023/07/26 02:42:44;;;;;;;2.47;0.90;;;12.60;99.90;;;;;;5033597;28;20042;-92
2023/07/26 02:45:10;;;;;;;4.78;1.05;;;12.60;99.90;;;;;;5033117;28;20044;-93
2023/07/26 02:47:35;;;;;;;1.42;0.70;;;12.50;99.90;;;;;;5035250;28;20037;-92
2023/07/26 02:50:04;;;;;;;1.58;1.00;;;12.50;99.90;;;;;;5034289;28;20094;-92
2023/07/26 02:52:31;;;;;;;2.05;0.77;;;12.50;99.90;;;;;;5042214;28;20047;-92
2023/07/26 02:54:57;;;;;;;1.70;0.82;;;12.50;99.90;;;;;;5069986;28;20068;-92
2023/07/26 02:57:23;;;;;;;2.13;0.90;;;12.50;99.90;;;;;;5039459;28;20040;-92
2023/07/26 02:59:49;;;;;;;2.17;0.77;;;12.10;99.90;;;;;;5036213;28;20383;-91
2023/07/26 03:02:15;;;;;;;3.03;1.15;;;12.40;99.90;;;;;;5021842;28;20040;-92
2023/07/26 03:04:41;;;;;;;2.78;1.02;;;12.40;99.90;;;;;;5028841;28;20066;-92
2023/07/26 03:07:07;;;;;;;1.53;1.00;;;12.30;99.90;;;;;;5024177;28;20041;-92
2023/07/26 03:09:33;;;;;;;1.48;0.93;;;12.30;99.90;;;;;;5040970;28;20055;-92
2023/07/26 03:11:58;;;;;;;2.08;1.05;;;12.30;99.90;;;;;;5040620;28;20651;-93
2023/07/26 03:14:24;;;;;;;2.22;0.90;;;11.50;99.90;;;;;;5023922;28;20490;-91
2023/07/26 03:16:50;;;;;;;4.60;1.00;;;12.20;99.90;;;;;;5027209;28;20109;-91
2023/07/26 03:19:16;;;;;;;1.85;1.13;;;12.20;99.90;;;;;;5041337;28;20032;-92
2023/07/26 03:21:42;;;;;;;1.73;1.00;;;12.10;99.90;;;;;;5055517;28;20131;-92
2023/07/26 03:24:07;;;;;;;3.42;1.00;;;12.10;99.90;;;;;;5077316;28;20062;-91
2023/07/26 03:26:36;;;;;;;2.22;0.88;;;12.10;99.90;;;;;;5027293;28;20040;-92
2023/07/26 03:29:02;;;;;;;1.50;1.13;;;12.10;99.90;;;;;;5060999;28;20051;-92
2023/07/26 03:31:28;;;;;;;5.60;1.60;;;12.10;99.90;;;;;;5076779;28;20036;-91
2023/07/26 03:33:54;;;;;;;3.60;1.23;;;12.10;99.90;;;;;;5059007;28;20036;-92
2023/07/26 03:36:20;;;;;;;4.72;1.55;;;12.10;99.90;;;;;;5061745;28;20038;-92
2023/07/26 03:38:45;;;;;;;2.30;1.17;;;12.10;99.90;;;;;;5050910;28;20040;-92
2023/07/26 03:41:11;;;;;;;3.40;1.30;;;12.10;99.90;;;;;;5056499;28;20045;-92
2023/07/26 03:43:40;;;;;;;5.10;1.30;;;12.20;99.90;;;;;;5053527;28;20512;-93
2023/07/26 03:46:06;;;;;;;2.88;1.17;;;12.20;99.90;;;;;;5041183;28;20048;-92
2023/07/26 03:48:32;;;;;;;4.07;1.50;;;12.30;99.90;;;;;;5053281;28;20089;-92
2023/07/26 03:50:58;;;;;;;2.63;1.33;;;12.30;99.90;;;;;;5036634;28;20045;-91
2023/07/26 03:53:24;;;;;;;2.05;1.33;;;12.40;99.90;;;;;;5016966;28;20560;-92
2023/07/26 03:55:49;;;;;;;2.95;1.23;;;12.40;99.90;;;;;;5058258;28;20659;-91
2023/07/26 03:58:15;;;;;;;3.67;1.45;;;12.40;99.90;;;;;;5074076;28;20032;-91
2023/07/26 04:00:41;;;;;;;3.67;1.40;;;12.50;99.90;;;;;;5045015;28;20480;-90
2023/07/26 04:03:07;;;;;;;2.30;1.42;;;12.50;99.90;;;;;;5054991;28;20037;-91
2023/07/26 04:05:33;;;;;;;2.22;1.48;;;12.50;99.90;;;;;;5068013;28;20048;-90
2023/07/26 04:07:58;;;;;;;4.13;1.20;;;12.20;99.90;;;;;;5048350;28;20106;-91
2023/07/26 04:10:26;;;;;;;2.17;1.38;;;12.60;99.90;;;;;;5072951;28;20036;-91
2023/07/26 04:12:52;;;;;;;4.53;1.40;;;12.60;99.90;;;;;;5060962;28;20097;-91
2023/07/26 04:15:18;;;;;;;2.10;1.27;;;12.70;99.90;;;;;;5078696;28;20040;-91
2023/07/26 04:17:43;;;;;;;3.10;1.23;;;12.60;99.90;;;;;;5072503;28;20036;-91
2023/07/26 04:20:10;;;;;;;2.13;1.20;;;12.70;99.90;;;;;;5073767;28;20078;-91
2023/07/26 04:22:35;;;;;;;3.88;1.35;;;12.70;99.90;;;;;;5066692;28;20041;-91
2023/07/26 04:25:01;;;;;;;2.10;1.20;;;12.70;99.90;;;;;;5052524;28;20567;-92
2023/07/26 04:27:27;;;;;;;2.20;1.20;;;12.70;99.90;;;;;;5040189;28;20774;-91
2023/07/26 04:29:53;;;;;;;2.25;1.15;;;12.70;99.90;;;;;;5028244;28;20079;-91
2023/07/26 04:32:18;;;;;;;2.65;1.50;;;12.70;99.90;;;;;;5057721;28;20047;-92
2023/07/26 04:34:44;;;;;;;2.65;1.23;;;;;;;;;;5027176;28;20602;-91
2023/07/26 04:37:10;;;;;;;3.45;1.23;;;12.70;99.90;;;;;;5072971;28;20044;-91
2023/07/26 04:39:36;;;;;;;3.47;1.17;;;12.70;99.90;;;;;;5058640;28;20036;-91
2023/07/26 04:42:02;;;;;;;2.63;1.45;;;12.80;99.90;;;;;;5071078;28;20093;-91
2023/07/26 04:44:27;;;;;;;2.42;1.45;;;12.80;99.90;;;;;;5032183;28;20040;-92
2023/07/26 04:46:53;;;;;;;2.35;1.38;;;12.80;99.90;;;;;;5072835;28;21431;-91
2023/07/26 04:49:19;;;;;;;2.40;1.30;;;12.80;99.90;;;;;;5027597;28;20044;-92
2023/07/26 04:51:44;;;;;;;2.30;1.50;;;12.90;99.90;;;;;;5055858;28;20380;-92
2023/07/26 04:54:10;;;;;;;2.30;1.23;;;12.90;99.90;;;;;;5019119;28;20148;-92
2023/07/26 04:56:36;;;;;;;2.92;1.33;;;12.90;99.90;;;;;;5039343;28;20040;-91
2023/07/26 04:59:02;;;;;;;2.05;1.33;;;12.90;99.90;;;;;;5021515;28;20033;-92
2023/07/26 05:01:27;;;;;;;3.30;1.40;;;12.90;99.90;;;;;;5047182;28;20040;-92
2023/07/26 05:03:53;;;;;;;2.40;1.40;;;13.10;99.90;;;;;;5061601;28;20039;-91
2023/07/26 05:06:19;;;;;;;2.95;1.40;;;13.30;99.90;;;;;;5056085;28;20036;-92
2023/07/26 05:08:47;;;;;;;3.55;1.70;;;13.50;99.90;;;;;;5054873;28;20068;-92
2023/07/26 05:11:13;;;;;;;2.90;1.20;;;13.70;99.90;;;;;;5048983;28;20125;-92
2023/07/26 05:13:38;;;;;;;4.63;1.65;;;13.90;99.90;;;;;;5055446;28;20072;-93
2023/07/26 05:16:04;;;;;;;2.55;1.33;;;14.20;99.90;;;;;;5073117;28;20040;-92
2023/07/26 05:18:30;;;;;;;3.08;1.95;;;14.30;99.90;;;;;;5022005;28;20040;-92
2023/07/26 05:20:56;;;;;;;2.30;1.50;;;14.50;99.90;;;;;;5022197;28;20049;-92
2023/07/26 05:23:21;;;;;;;3.63;1.55;;;14.60;99.90;;;;;;5051712;28;20655;-92
2023/07/26 05:25:47;;;;;;;2.00;1.60;;;14.70;99.90;;;;;;5029297;28;20094;-92
2023/07/26 05:28:13;;;;;;;3.58;1.55;;;14.80;99.90;;;;;;5054438;28;20040;-92
2023/07/26 05:30:40;;;;;;;2.55;1.30;;;14.80;99.90;;;;;;5019826;28;20045;-92
2023/07/26 05:33:07;;;;;;;4.32;1.63;;;14.80;99.90;;;;;;5076185;28;20041;-90
2023/07/26 05:35:33;;;;;;;2.85;1.30;;;14.70;99.90;;;;;;5048635;28;20044;-90
2023/07/26 05:37:59;;;;;;;1.83;1.23;;;14.70;99.90;;;;;;5065461;28;20032;-90
2023/07/26 05:40:25;;;;;;;1.80;1.30;;;14.70;99.90;;;;;;5076317;28;20097;-90
2023/07/26 05:42:50;;;;;;;2.50;1.20;;;14.80;99.90;;;;;;5074935;28;20484;-90
2023/07/26 05:45:16;;;;;;;2.47;1.17;;;14.80;99.90;;;;;;5073708;28;20071;-90
2023/07/26 05:47:43;;;;;;;4.35;1.35;;;14.90;99.90;;;;;;5067470;28;20087;-90
2023/07/26 05:50:10;;;;;;;2.17;1.30;;;15.40;99.90;;;;;;5032826;28;20041;-90
2023/07/26 05:52:37;;;;;;;2.15;1.20;;;15.60;99.90;;;;;;5069003;28;20484;-89
2023/07/26 05:55:04;;;;;;;5.05;1.60;;;15.40;99.90;;;;;;5087580;28;20080;-89
2023/07/26 05:57:30;;;;;;;1.88;0.90;;;15.30;99.90;;;;;;5071880;28;20115;-90
2023/07/26 05:59:56;;;;;;;1.70;1.05;;;15.20;99.90;;;;;;5053821;28;20127;-90
2023/07/26 06:02:22;;;;;;;3.42;0.88;;;15.10;99.90;;;;;;5067213;28;20033;-90
2023/07/26 06:04:52;;;;;;;1.75;0.70;;;15.00;99.90;;;;;;5065543;28;20037;-91
2023/07/26 06:07:18;;;;;;;2.45;1.10;;;14.90;99.90;;;;;;5054334;28;20052;-90
2023/07/26 06:09:44;;;;;;;2.53;0.95;;;14.80;99.90;;;;;;5046097;28;20056;-90
2023/07/26 06:12:10;;;;;;;2.63;1.30;;;14.80;99.90;;;;;;5054702;28;20101;-89
2023/07/26 06:14:36;;;;;;;2.57;1.00;;;14.70;99.90;;;;;;5037284;28;20045;-90
2023/07/26 06:17:12;;;;;;;2.42;1.10;;;14.60;99.90;;;;;;5035353;28;20037;-90
2023/07/26 06:19:37;;;;;;;1.70;0.80;;;14.50;99.90;;;;;;5080256;28;20039;-90
2023/07/26 06:22:05;;;;;;;1.55;0.80;;;14.40;99.90;;;;;;5088386;28;20045;-90
2023/07/26 06:24:30;;;;;;;3.35;1.10;;;14.40;99.90;;;;;;5023666;28;20049;-91
2023/07/26 06:26:56;;;;;;;2.47;1.00;;;14.30;99.90;;;;;;5036257;28;20721;-90
2023/07/26 06:29:22;;;;;;;1.83;1.08;;;14.30;99.90;;;;;;5033266;28;20037;-92
2023/07/26 06:31:48;;;;;;;4.80;1.13;;;14.20;99.90;;;;;;5053035;28;20498;-93
2023/07/26 06:34:14;;;;;;;2.63;0.70;;;14.20;99.90;;;;;;5055317;28;20037;-93
2023/07/26 06:36:40;;;;;;;1.45;0.95;;;14.20;99.90;;;;;;5054347;28;20037;-92
2023/07/26 06:39:06;;;;;;;2.53;0.93;;;14.20;99.90;;;;;;5052081;28;20190;-92
2023/07/26 06:41:32;;;;;;;1.92;0.95;;;14.40;99.90;;;;;;5080872;28;20039;-92
2023/07/26 06:43:58;;;;;;;1.58;0.85;;;14.60;99.90;;;;;;5042175;28;20040;-92
2023/07/26 06:47:17;;;;;;;2.05;1.00;;;16.00;99.90;;;;;;5057403;28;20040;-93
2023/07/26 06:49:46;;;;;;;2.40;0.93;;;18.00;99.90;;;;;;5101403;28;20084;-93
2023/07/26 06:52:12;;;;;;;1.55;0.90;;;20.30;99.90;;;;;;5036862;28;20339;-92
2023/07/26 06:54:40;;;;;;;1.45;0.82;;;20.80;99.90;;;;;;5060241;28;20040;-92
2023/07/26 06:57:06;;;;;;;1.25;0.90;;;20.40;99.90;;;;;;5055723;28;20036;-92
2023/07/26 06:59:32;;;;;;;1.33;0.88;;;19.90;99.90;;;;;;5068618;28;20058;-92
2023/07/26 07:01:58;;;;;;;0.93;0.70;;;19.60;99.90;;;;;;5046831;28;20040;-91
2023/07/26 07:04:24;;;;;;;1.83;0.80;;;19.80;99.90;;;;;;5072723;28;20287;-92
2023/07/26 07:06:50;;;;;;;1.25;0.70;;;20.70;99.90;;;;;;5065257;28;20722;-92
2023/07/26 07:09:16;;;;;;;1.67;0.80;;;21.50;99.90;;;;;;5099707;28;20113;-92
2023/07/26 07:11:42;;;;;;;1.05;0.70;;;22.10;99.90;;;;;;5059512;28;20050;-93
2023/07/26 07:14:11;;;;;;;1.08;0.65;;;22.30;99.90;;;;;;5042040;28;20111;-92
2023/07/26 07:31:59;;;;;;;;;;;24.70;99.90;;;;;;4981378;28;20078;-93
2023/07/26 07:34:43;;;;;;;1.52;0.60;;;24.90;99.90;;;;;;4961868;28;20675;-93
2023/07/26 07:41:23;;;;;;;0.97;0.60;;;25.10;99.90;;;;;;4981590;28;20049;-93
2023/07/26 07:56:23;;;;;;;0.55;0.43;;;26.20;98.00;;;;;;4912096;29;20135;-93
2023/07/26 07:59:18;;;;;;;0.82;0.40;;;25.60;95.30;;;;;;4903217;29;20055;-94
2023/07/26 08:03:09;;;;;;;;;;;;;;;;;;;;;
2023/07/26 08:06:12;;;;;;;;;;;;;;;;;;;;;
2023/07/26 08:09:07;;;;;;;0.73;0.40;;;24.90;94.00;;;;;;4962783;28;20117;-93
2023/07/26 08:12:48;;;;;;;1.17;0.57;;;24.30;94.20;;;;;;4974768;28;20600;-94
2023/07/26 08:15:40;;;;;;;1.05;0.40;;;24.10;94.50;;;;;;4970431;28;20047;-93
2023/07/26 08:18:14;;;;;;;0.65;0.40;;;23.70;95.80;;;;;;4953961;28;20081;-93
2023/07/26 08:20:47;;;;;;;1.00;0.45;;;23.10;96.10;;;;;;5032356;28;20449;-92
2023/07/26 08:23:23;;;;;;;1.38;0.40;;;22.70;96.90;;;;;;5061056;28;20040;-93
2023/07/26 08:25:52;;;;;;;0.40;0.22;;;22.30;97.00;;;;;;5026331;28;20044;-94
2023/07/26 08:28:17;;;;;;;1.17;0.47;;;22.00;97.80;;;;;;5075683;28;20140;-94
2023/07/26 08:30:43;;;;;;;0.83;0.50;;;21.80;98.00;;;;;;5022950;28;20127;-94
2023/07/26 08:33:09;;;;;;;0.67;0.50;;;21.90;98.60;;;;;;5022780;28;20063;-93
2023/07/26 08:35:35;;;;;;;0.83;0.50;;;22.30;98.60;;;;;;5056684;28;20502;-94
2023/07/26 08:38:01;;;;;;;0.70;0.40;;;23.20;98.40;;;;;;5030644;28;20071;-93
2023/07/26 08:40:27;;;;;;;2.17;0.50;;;23.90;97.40;;;;;;5022426;28;20040;-93
2023/07/26 08:42:55;;;;;;;1.20;0.50;;;24.70;97.00;;;;;;5020373;28;20041;-93
2023/07/26 08:45:21;;;;;;;0.90;0.50;;;24.90;96.00;;;;;;5070280;28;20048;-94
2023/07/26 08:47:47;;;;;;;1.17;0.75;;;25.10;95.80;;;;;;5060165;28;20040;-93
2023/07/26 08:50:14;;;;;;;1.92;0.63;;;25.40;95.50;;;;;;5036946;28;20440;-93
2023/07/26 08:52:40;;;;;;;0.98;0.60;;;25.40;95.00;;;;;;5041641;28;20045;-94
2023/07/26 08:55:07;;;;;;;1.10;0.50;;;25.10;94.50;;;;;;5054791;28;20044;-93
2023/07/26 08:57:33;;;;;;;0.60;0.40;;;25.10;94.10;;;;;;5051024;28;20056;-93
2023/07/26 08:59:59;;;;;;;0.52;0.40;;;25.10;93.70;;;;;;5086625;28;20410;-93
2023/07/26 09:02:25;;;;;;;0.73;0.30;;;25.10;93.50;;;;;;5054856;28;20044;-94
2023/07/26 09:04:51;;;;;;;0.88;0.40;;;25.00;93.30;;;;;;5072018;28;20036;-93
2023/07/26 09:07:18;;;;;;;1.37;0.50;;;24.60;93.60;;;;;;5037301;28;20174;-94
2023/07/26 09:09:44;;;;;;;1.88;0.50;;;24.10;94.00;;;;;;5071677;28;20047;-94
2023/07/26 09:12:17;;;;;;;0.73;0.50;;;23.60;94.50;;;;;;5051443;28;20115;-93
2023/07/26 09:14:44;;;;;;;1.25;0.70;;;23.50;94.80;;;;;;5067152;28;20048;-94
2023/07/26 09:17:09;;;;;;;1.05;0.45;;;23.10;95.40;;;;;;5088745;28;20538;-90
2023/07/26 09:19:38;;;;;;;1.40;0.70;;;23.10;96.10;;;;;;5043168;28;20041;-94
2023/07/26 09:22:06;;;;;;;0.93;0.60;;;23.30;96.20;;;;;;5081195;28;20049;-94
2023/07/26 09:24:37;;;;;;;1.13;0.60;;;23.20;96.20;;;;;;5048762;28;20044;-92
2023/07/26 09:27:12;;;;;;;1.20;0.70;;;23.00;96.30;;;;;;5054624;28;20044;-93
2023/07/26 09:29:41;;;;;;;1.67;0.82;;;22.80;97.00;;;;;;5084057;28;20044;-93
2023/07/26 09:32:07;;;;;;;1.08;0.77;;;22.70;97.70;;;;;;5041398;28;20064;-91
2023/07/26 09:34:34;;;;;;;1.40;0.77;;;22.50;97.50;;;;;;5050339;28;20052;-91
2023/07/26 09:37:00;;;;;;;1.33;0.70;;;22.10;97.30;;;;;;5033307;28;20040;-93
2023/07/26 09:39:28;;;;;;;1.25;0.70;;;22.00;97.70;;;;;;5055772;28;20040;-94
2023/07/26 09:42:12;;;;;;;2.80;0.90;;;22.10;98.00;;;;;;5055720;28;20037;-95
2023/07/26 09:44:59;;;;;;;1.15;0.70;;;21.60;96.60;;;;;;5037766;28;20194;-95
2023/07/26 09:47:34;;;;;;;1.30;0.90;;;21.50;97.90;;;;;;5055939;28;20032;-94
2023/07/26 09:50:00;;;;;;;1.33;0.90;;;21.30;97.90;;;;;;5052771;28;20044;-94
2023/07/26 09:55:56;;;;;;;2.03;0.90;;;21.10;98.70;;;;;;5030654;28;20478;-95
2023/07/26 09:58:27;;;;;;;1.20;0.90;;;21.20;99.30;;;;;;5035535;28;20048;-94
2023/07/26 10:04:46;;;;;;;2.72;0.85;;;21.50;99.60;;;;;;5057322;28;20040;-94
2023/07/26 10:07:13;;;;;;;1.45;0.82;;;21.60;99.80;;;;;;5076790;28;20708;-93
2023/07/26 10:09:44;;;;;;;1.50;0.90;;;21.40;99.90;;;;;;5045623;28;20056;-92
2023/07/26 10:12:11;;;;;;;1.40;0.80;;;21.40;99.80;;;;;;5059937;28;20037;-92
2023/07/26 10:14:38;;;;;;;1.23;0.88;;;21.30;99.90;;;;;;5068525;28;20115;-91
2023/07/26 10:17:04;;;;;;;1.73;0.90;;;21.00;99.80;;;;;;5042655;28;20111;-92
2023/07/26 10:19:31;;;;;;;1.38;0.80;;;20.80;99.90;;;;;;5042859;28;20131;-91
2023/07/26 10:21:58;;;;;;;1.92;0.82;;;20.40;99.90;;;;;;5040791;28;20045;-92
2023/07/26 10:24:25;;;;;;;2.97;0.90;;;20.20;99.90;;;;;;5043869;28;20040;-92
2023/07/26 10:26:52;;;;;;;1.50;0.90;;;19.90;99.90;;;;;;5044989;28;20049;-92
2023/07/26 10:29:19;;;;;;;0.80;0.55;;;19.80;99.90;;;;;;5041232;28;20041;-93
2023/07/26 10:31:46;;;;;;;;;;;19.50;99.90;;;;;;5021946;28;20277;-94
2023/07/26 10:34:20;;;;;;;1.20;0.80;;;19.30;99.90;;;;;;5037904;28;19954;-94
2023/07/26 10:36:45;;;;;;;0.93;0.73;;;19.30;99.90;;;;;;5057808;28;20033;-93
2023/07/26 10:39:12;;;;;;;1.38;0.70;;;19.10;99.90;;;;;;5048300;28;20231;-94
2023/07/26 10:41:47;;;;;;;1.60;0.82;;;19.00;99.90;;;;;;5026526;28;20035;-93
2023/07/26 10:44:14;;;;;;;1.10;0.75;;;18.80;99.90;;;;;;5047359;28;20051;-92
2023/07/26 10:47:03;;;;;;;1.88;1.00;;;18.70;99.90;;;;;;5055505;28;20048;-94
2023/07/26 10:49:33;;;;;;;1.50;0.82;;;18.60;99.90;;;;;;5035540;28;20377;-94
2023/07/26 10:52:04;;;;;;;1.90;0.70;;;18.60;99.90;;;;;;5040640;28;20036;-93
2023/07/26 10:54:39;;;;;;;1.88;0.90;;;18.70;99.90;;;;;;5070769;28;20048;-94
2023/07/26 10:57:31;;;;;;;1.88;0.80;;;18.80;99.90;;;;;;5053947;28;20805;-94
2023/07/26 11:00:11;;;;;;;1.52;1.20;;;18.80;99.90;;;;;;5060655;28;20045;-94
2023/07/26 11:02:46;;;;;;;1.77;0.93;;;18.70;99.90;;;;;;5023332;28;20041;-92
2023/07/26 11:13:12;;;;;;;1.77;0.95;;;17.40;99.90;;;;;;4959318;28;20057;-93
2023/07/26 11:19:01;;;;;;;1.70;0.70;;;16.40;99.90;;;;;;4953392;28;20122;-93
2023/07/26 11:21:26;;;;;;;1.05;0.70;;;16.20;99.90;;;;;;4993535;28;20100;-93
2023/07/26 11:23:52;;;;;;;3.00;1.17;;;16.10;99.90;;;;;;5007011;28;20045;-92
2023/07/26 11:26:18;;;;;;;2.00;1.00;;;16.00;99.90;;;;;;5020282;28;20124;-93
2023/07/26 11:28:44;;;;;;;1.98;0.93;;;16.00;99.90;;;;;;5024624;28;20068;-94
2023/07/26 11:31:18;;;;;;;1.45;0.80;;;16.00;99.90;;;;;;5017475;28;20084;-93
2023/07/26 11:33:44;;;;;;;1.15;0.70;;;16.10;99.90;;;;;;5039557;28;20076;-92
2023/07/26 11:36:32;;;;;;;;;;;;;;;;;;;;;
2023/07/26 11:39:07;;;;;;;1.13;0.75;;;15.80;99.90;;;;;;5056443;28;20088;-94
2023/07/26 11:41:33;;;;;;;1.17;0.50;;;16.20;99.90;;;;;;5021420;28;20110;-88
2023/07/26 11:43:59;;;;;;;1.05;0.50;;;16.10;99.90;;;;;;5033305;28;20041;-88
2023/07/26 11:46:29;;;;;;;1.90;0.60;;;16.00;99.90;;;;;;5032897;28;20049;-89
2023/07/26 11:48:54;;;;;;;3.15;0.70;;;16.20;99.90;;;;;;5047475;28;20041;-89
2023/07/26 11:51:21;;;;;;;1.35;0.70;;;16.30;99.90;;;;;;5034078;28;20047;-88
2023/07/26 11:53:47;;;;;;;1.40;0.50;;;16.70;99.90;;;;;;5018045;28;20042;-88
2023/07/26 11:56:14;;;;;;;0.90;0.43;;;16.70;99.90;;;;;;5032378;28;20203;-89
2023/07/26 11:58:41;;;;;;;1.00;0.50;;;16.90;99.90;;;;;;5030471;28;20044;-88
2023/07/26 12:01:07;;;;;;;2.00;0.40;;;17.00;99.90;;;;;;5057494;28;20083;-90
2023/07/26 12:03:33;;;;;;;1.40;0.60;;;17.20;99.90;;;;;;5066764;28;20736;-90
2023/07/26 12:05:59;;;;;;;2.05;0.50;;;17.30;99.90;;;;;;5074163;28;20048;-90
2023/07/26 12:08:29;;;;;;;1.30;0.60;;;17.40;99.90;;;;;;5082156;28;20089;-91
2023/07/26 12:10:54;;;;;;;1.50;0.60;;;17.30;99.90;;;;;;5073362;28;20040;-93
2023/07/26 12:13:22;;;;;;;0.77;0.40;;;17.40;99.90;;;;;;5040179;28;20048;-94
2023/07/26 12:15:53;;;;;;;1.42;0.55;;;17.50;99.90;;;;;;5073007;28;20115;-93
2023/07/26 12:18:21;;;;;;;1.05;0.50;;;17.50;99.90;;;;;;5059771;28;20039;-94
2023/07/26 12:21:07;;;;;;;2.88;0.73;;;17.60;99.90;;;;;;5059656;28;20047;-93
2023/07/26 12:23:52;;;;;;;1.23;0.60;;;17.70;99.90;;;;;;5051807;28;20236;-92
2023/07/26 12:26:29;;;;;;;0.73;0.50;;;17.70;99.90;;;;;;5093054;28;20182;-94
2023/07/26 12:29:06;;;;;;;1.07;0.53;;;17.70;99.90;;;;;;5057514;28;20509;-92
2023/07/26 12:31:38;;;;;;;2.42;0.60;;;17.60;99.90;;;;;;5088684;28;20036;-93
2023/07/26 12:34:12;;;;;;;1.50;0.63;;;17.50;99.90;;;;;;5059569;28;20032;-93
2023/07/26 12:36:41;;;;;;;1.05;0.60;;;17.40;99.90;;;;;;5047371;28;20032;-94
2023/07/26 12:39:08;;;;;;;1.48;0.60;;;17.40;99.90;;;;;;5055770;28;20123;-94
2023/07/26 12:41:37;;;;;;;;;;;17.30;99.90;;;;;;5060309;28;20052;-93
2023/07/26 12:44:07;;;;;;;0.85;0.60;;;17.20;99.90;;;;;;5077336;28;19928;-94
2023/07/26 12:46:33;;;;;;;1.75;0.70;;;17.20;99.90;;;;;;5092521;28;20088;-92
2023/07/26 12:49:04;;;;;;;2.38;0.85;;;17.20;99.90;;;;;;5052980;28;20044;-92
2023/07/26 12:51:31;;;;;;;1.48;0.60;;;17.20;99.90;;;;;;5060222;28;20475;-92
2023/07/26 12:53:56;;;;;;;0.80;0.50;;;17.20;99.90;;;;;;5060284;28;20039;-93
2023/07/26 12:56:25;;;;;;;0.98;0.60;;;17.20;99.90;;;;;;5094521;28;20040;-92
2023/07/26 12:58:51;;;;;;;0.85;0.80;;;17.30;99.90;;;;;;5046795;28;20055;-91
2023/07/26 13:01:27;;;;;;;1.42;0.60;;;17.40;99.90;;;;;;5066653;28;20047;-92
2023/07/26 13:03:53;;;;;;;1.00;0.57;;;17.40;99.90;;;;;;5070669;28;20145;-93
2023/07/26 13:06:19;;;;;;;2.10;0.68;;;17.10;99.90;;;;;;5093747;28;20040;-94
2023/07/26 13:08:48;;;;;;;1.85;0.68;;;17.40;99.90;;;;;;5042441;28;20044;-92
2023/07/26 13:11:14;;;;;;;4.07;1.05;;;17.40;99.90;;;;;;5058444;28;20036;-92
2023/07/26 13:13:40;;;;;;;1.85;0.80;;;17.60;99.90;;;;;;5060388;28;20042;-93
2023/07/26 13:16:06;;;;;;;2.05;0.70;;;17.70;99.90;;;;;;5060431;28;20123;-93
2023/07/26 13:18:32;;;;;;;1.30;0.68;;;17.80;99.90;;;;;;5052611;28;20706;-92
2023/07/26 13:20:57;;;;;;;2.00;1.00;;;17.90;99.90;;;;;;5093790;28;20048;-93
2023/07/26 13:23:26;;;;;;;3.13;0.98;;;17.90;99.90;;;;;;5093717;28;20067;-92
2023/07/26 13:25:52;;;;;;;2.97;1.00;;;18.00;99.90;;;;;;5086822;28;20036;-91
2023/07/26 13:28:17;;;;;;;1.92;0.80;;;18.20;99.90;;;;;;5052237;28;20050;-92
2023/07/26 13:30:43;;;;;;;1.33;0.80;;;18.30;99.90;;;;;;5068248;28;20112;-90
2023/07/26 13:33:09;;;;;;;2.60;0.80;;;18.50;99.90;;;;;;5071558;28;20055;-90
2023/07/26 13:35:34;;;;;;;3.10;0.85;;;18.50;99.90;;;;;;5074426;28;20032;-89
2023/07/26 13:38:00;;;;;;;3.00;0.93;;;18.50;99.90;;;;;;5071946;28;20063;-90
2023/07/26 13:40:26;;;;;;;3.65;1.08;;;18.30;99.90;;;;;;5050449;28;20481;-90
2023/07/26 13:42:52;;;;;;;2.67;0.98;;;18.20;99.90;;;;;;5092158;28;20044;-90
2023/07/26 13:45:17;;;;;;;1.70;0.80;;;18.10;99.90;;;;;;5056067;28;20051;-90
2023/07/26 13:47:43;;;;;;;3.95;0.95;;;18.00;99.90;;;;;;5053681;28;20376;-93